Nearby METAR Reports

 

KNTU - NAS Oceana, Virginia Beach, Virginia, USA
Distance from station: N 3.2mi, 5.1km
Updated: Sun, 28-Feb-2021 6:56pm EST
Mostly cloudy
Mostly cloudy
 Wind from SE
Wind: SE 5 mph , 7 km/h
Temperature: 61°F , 16°C
Dew Point: 54°F , 12°C
Humidity: 77%
Barometer: 29.97 inHg , 1014.9 hPa
Clouds: Mostly cloudy
Visibility: 10 miles , 16 km
Cloud details: Few Clouds 5000 ft
Few Clouds 6000 ft
Mostly cloudy 7500 ft
Mostly cloudy 25000 ft
2021/02/28 23:56 KNTU 282356Z 14004KT 10SM FEW050 FEW060 BKN075 BKN250 16/12 A2997 RMK AO2 SLP152 T01610122 10222 20156 56014
KNFE - Fentress NALF, Virginia Beach Virginia, USA
Distance from station: SW 7.6mi, 12.2km
Updated: Sun, 28-Feb-2021 6:56pm EST
Partly cloudy
Partly cloudy
 Wind from calm
Wind: Calm
Temperature: 63°F , 17°C
Dew Point: 61°F , 16°C
Humidity: 94%
Barometer: 29.98 inHg , 1015.2 hPa
Clouds: Partly cloudy
Visibility: 10 miles , 16 km
Cloud details: Few Clouds 6500 ft
Partly cloudy 9500 ft
2021/02/28 23:56 KNFE 282356Z AUTO 00000KT 10SM FEW065 SCT095 17/16 A2998 RMK AO2 SLP153 T01720161 10211 20167 56013
 
KORF - Norfolk International, Norfolk, Virginia, USA
Distance from station: NW 12.2mi, 19.6km
Updated: Sun, 28-Feb-2021 6:51pm EST
Mostly cloudy
Mostly cloudy
 Wind from NNE
Wind: NNE 3 mph , 6 km/h
Temperature: 54°F , 12°C
Dew Point: 48°F , 9°C
Humidity: 82%
Barometer: 29.98 inHg , 1015.2 hPa
Clouds: Mostly cloudy
Visibility: 10 miles , 16 km
Cloud details: Mostly cloudy 6000 ft
2021/02/28 23:51 KORF 282351Z 02003KT 10SM BKN060 12/09 A2998 RMK AO2 SLP151 T01170094 10206 20117 56006
KCPK - Cheasapeak Municipal, Cheasapeak, Virginia, USA
Distance from station: SW 17.2mi, 27.7km
Updated: Sun, 28-Feb-2021 7:35pm EST
Partly cloudy
Partly cloudy
 Wind from calm
Wind: Calm
Temperature: 61°F , 16°C
Dew Point: 59°F , 15°C
Humidity: 94%
Barometer: 29.97 inHg , 1014.9 hPa
Clouds: Partly cloudy
Visibility: 10 miles , 16 km
Cloud details: Partly cloudy 5000 ft
Partly cloudy 6000 ft
Partly cloudy 9500 ft
2021/03/01 00:35 KCPK 010035Z AUTO 00000KT 10SM SCT050 SCT060 SCT095 16/15 A2997 RMK AO2 T01570151
 
KNGU - NAS Norfolk, Norfolk, Virginia, USA
Distance from station: NW 17.7mi, 28.5km
Updated: Sun, 28-Feb-2021 6:59pm EST
Mostly cloudy
Mostly cloudy
 Wind from ENE
Wind: ENE 3 mph , 6 km/h
Temperature: 52°F , 11°C
Dew Point: 46°F , 8°C
Humidity: 82%
Barometer: 29.99 inHg , 1015.6 hPa
Clouds: Mostly cloudy
Visibility: 9 miles , 14 km
Cloud details: Few Clouds 1200 ft
Partly cloudy 6000 ft
Mostly cloudy 14000 ft
Mostly cloudy 25000 ft
2021/02/28 23:59 KNGU 282359Z 06003KT 9SM FEW012 SCT060 BKN140 BKN250 11/08 A2999 RMK AO2 SLP157 T01060083 10194 20106 56012 $